Time;durP1;ratioP1;P1;durP2;ratioP2;P2;SDS_P1;SDS_P2;PMS_P1;PMS_P2;Temp;Humidity;BMP_temperature;BMP_pressure;BME280_temperature;BME280_humidity;BME280_pressure;Samples;Min_cycle;Max_cycle;Signal;HPM_P1;HPM_P2
2023/06/05 00:00:32;;;;;;;2.88;1.10;;;;;;;24.20;34.47;101855.03;5033847;28;20112;-59
2023/06/05 00:02:58;;;;;;;4.28;0.98;;;;;;;24.17;34.45;101852.66;5033901;28;20037;-60
2023/06/05 00:05:25;;;;;;;2.60;1.40;;;;;;;24.14;34.96;101855.78;5033910;28;20057;-60
2023/06/05 00:07:51;;;;;;;4.90;1.60;;;;;;;23.95;34.81;101827.13;5033968;28;20489;-59
2023/06/05 00:10:16;;;;;;;8.50;1.73;;;;;;;24.07;35.69;101854.81;5034015;28;20045;-59
2023/06/05 00:12:42;;;;;;;4.60;1.45;;;;;;;24.02;35.67;101854.53;5033831;28;20473;-60
2023/06/05 00:15:08;;;;;;;6.10;1.65;;;;;;;23.98;35.64;101853.25;5034749;28;20469;-60
2023/06/05 00:17:33;;;;;;;3.47;1.40;;;;;;;23.95;35.05;101846.28;5033892;28;20135;-60
2023/06/05 00:19:59;;;;;;;2.90;1.58;;;;;;;23.92;35.27;101845.81;5034212;28;20501;-64
2023/06/05 00:22:27;;;;;;;5.10;1.60;;;;;;;23.90;35.19;101845.16;5034071;28;20033;-60
2023/06/05 00:24:52;;;;;;;2.65;1.83;;;;;;;23.89;36.00;101843.44;5033793;28;20036;-60
2023/06/05 00:27:20;;;;;;;3.22;1.10;;;;;;;23.88;35.55;101847.22;5034014;28;20033;-60
2023/06/05 00:29:46;;;;;;;5.18;1.40;;;;;;;23.83;35.56;101842.31;5033458;28;20033;-60
2023/06/05 00:32:11;;;;;;;5.00;1.25;;;;;;;23.77;35.84;101846.66;5033835;28;20045;-60
2023/06/05 00:34:36;;;;;;;2.85;1.17;;;;;;;23.75;35.47;101847.91;5032432;28;20116;-59
2023/06/05 00:37:02;;;;;;;3.53;1.75;;;;;;;23.70;35.71;101840.25;5032075;28;20100;-59
2023/06/05 00:39:28;;;;;;;9.38;2.95;;;;;;;23.68;35.54;101842.31;5034223;28;20025;-59
2023/06/05 00:41:53;;;;;;;5.50;2.05;;;;;;;23.64;35.63;101843.78;5032081;28;20386;-59
2023/06/05 00:44:19;;;;;;;5.65;2.22;;;;;;;23.33;35.61;101798.47;5033196;28;20424;-59
2023/06/05 00:46:45;;;;;;;3.90;1.55;;;;;;;23.58;35.46;101847.25;5033778;28;20029;-59
2023/06/05 00:49:11;;;;;;;6.30;2.33;;;;;;;23.52;36.55;101842.53;5033500;28;20037;-60
2023/06/05 00:51:36;;;;;;;2.25;1.45;;;;;;;23.51;35.86;101845.44;5033251;28;20017;-61
2023/06/05 00:54:03;;;;;;;8.00;1.63;;;;;;;23.31;36.32;101817.78;5033499;28;20087;-59
2023/06/05 00:56:28;;;;;;;5.60;2.42;;;;;;;23.44;36.42;101844.50;5032046;28;20103;-59
2023/06/05 00:58:54;;;;;;;5.55;2.47;;;;;;;23.42;36.58;101855.63;5048554;28;20540;-59
2023/06/05 01:01:20;;;;;;;1.25;1.08;;;;;;;23.36;36.79;101842.69;5033367;28;20075;-59
2023/06/05 01:03:47;;;;;;;3.38;1.33;;;;;;;23.28;36.07;101845.53;5033447;28;20025;-60
2023/06/05 01:06:13;;;;;;;3.88;1.30;;;;;;;23.25;36.04;101834.97;5033488;28;20109;-60
2023/06/05 01:08:39;;;;;;;4.88;1.38;;;;;;;23.24;37.19;101846.91;5032958;28;20511;-59
2023/06/05 01:11:30;;;;;;;5.97;1.40;;;;;;;23.21;37.17;101844.56;5033138;28;20117;-60
2023/06/05 01:14:04;;;;;;;5.00;1.40;;;;;;;23.18;37.19;101842.19;5032280;28;20034;-59
2023/06/05 01:16:32;;;;;;;4.10;1.40;;;;;;;23.15;37.12;101839.81;5032997;28;20148;-59
2023/06/05 01:19:01;;;;;;;3.45;1.73;;;;;;;23.11;36.51;101842.09;5031700;28;20103;-59
2023/06/05 01:21:27;;;;;;;2.88;1.63;;;;;;;23.07;36.45;101845.38;5033526;28;20029;-60
2023/06/05 01:23:53;;;;;;;5.10;1.30;;;;;;;23.03;37.35;101842.16;5032906;28;20033;-59
2023/06/05 01:26:21;;;;;;;6.57;1.27;;;;;;;22.71;37.00;101793.28;5032767;28;20409;-59
2023/06/05 01:28:48;;;;;;;5.03;1.40;;;;;;;22.95;36.58;101844.13;5031735;28;20040;-59
2023/06/05 01:31:19;;;;;;;4.18;1.38;;;;;;;22.89;37.74;101840.25;5032694;28;20408;-59
2023/06/05 01:33:51;;;;;;;2.65;1.00;;;;;;;22.85;37.76;101832.59;5031976;28;20025;-60
2023/06/05 01:36:18;;;;;;;7.03;1.48;;;;;;;22.82;37.15;101830.25;5033556;28;20024;-60
2023/06/05 01:38:44;;;;;;;3.83;1.52;;;;;;;22.79;36.74;101838.81;5032597;28;20518;-59
2023/06/05 01:41:10;;;;;;;2.22;1.40;;;;;;;22.74;37.75;101830.31;5033052;28;20045;-60
2023/06/05 01:43:36;;;;;;;5.65;1.70;;;;;;;22.74;37.78;101835.78;5033324;28;20061;-59
2023/06/05 01:46:03;;;;;;;3.45;1.35;;;;;;;22.68;37.90;101833.78;5031825;28;20088;-59
2023/06/05 01:48:29;;;;;;;3.03;1.15;;;;;;;22.62;37.14;101833.44;5033773;28;20025;-59
2023/06/05 01:50:56;;;;;;;3.50;1.40;;;;;;;22.56;37.19;101831.44;5032592;28;20455;-59
2023/06/05 01:53:21;;;;;;;6.93;2.42;;;;;;;22.55;38.11;101828.91;5032616;28;20091;-59
2023/06/05 01:55:48;;;;;;;7.75;3.17;;;;;;;22.35;37.76;101795.78;5032683;28;20045;-59
2023/06/05 01:58:13;;;;;;;3.28;1.48;;;;;;;22.49;37.31;101826.91;5032545;28;20048;-59
2023/06/05 02:00:39;;;;;;;4.50;1.63;;;;;;;22.33;37.57;101806.03;5032822;28;20029;-60
2023/06/05 02:03:06;;;;;;;6.90;1.20;;;;;;;22.44;37.78;101827.47;5033163;28;20026;-59
2023/06/05 02:05:33;;;;;;;2.20;1.20;;;;;;;22.39;37.35;101818.94;5032418;28;20037;-59
2023/06/05 02:07:58;;;;;;;2.33;1.40;;;;;;;22.34;38.28;101818.66;5032664;28;20037;-59
2023/06/05 02:10:24;;;;;;;3.03;1.77;;;;;;;22.18;37.56;101796.94;5032460;28;20095;-59
2023/06/05 02:12:50;;;;;;;2.58;1.17;;;;;;;22.28;37.97;101821.28;5032628;28;20021;-59
2023/06/05 02:15:15;;;;;;;2.30;1.60;;;;;;;22.09;38.13;101792.53;5033013;28;20040;-59
2023/06/05 02:17:44;;;;;;;3.55;1.20;;;;;;;22.23;38.40;101815.47;5032388;28;20067;-59
2023/06/05 02:20:15;;;;;;;6.15;1.90;;;;;;;22.20;38.36;101822.16;5014941;28;20121;-59
2023/06/05 02:22:41;;;;;;;2.80;1.52;;;;;;;22.18;38.12;101816.03;5033972;28;20120;-59
2023/06/05 02:25:06;;;;;;;8.88;1.75;;;;;;;22.15;38.30;101818.28;5035667;28;20033;-59
2023/06/05 02:27:32;;;;;;;3.65;1.63;;;;;;;22.11;37.96;101815.03;5036791;28;20044;-59
2023/06/05 02:29:57;;;;;;;7.05;1.48;;;;;;;22.08;38.71;101818.16;5035837;28;20497;-59
2023/06/05 02:32:26;;;;;;;3.70;2.00;;;;;;;22.04;38.83;101814.06;5034657;28;20036;-59
2023/06/05 02:34:52;;;;;;;3.72;1.60;;;;;;;22.01;38.51;101818.03;5036072;28;20061;-59
2023/06/05 02:37:22;;;;;;;5.15;1.25;;;;;;;21.98;38.71;101817.53;5035446;28;20057;-59
2023/06/05 02:39:47;;;;;;;5.47;1.52;;;;;;;21.96;39.07;101825.03;5036089;28;20040;-59
2023/06/05 02:42:13;;;;;;;3.00;1.58;;;;;;;21.94;38.68;101816.19;5036151;28;20033;-59
2023/06/05 02:44:38;;;;;;;3.15;1.92;;;;;;;21.92;39.00;101815.50;5031764;28;20072;-63
2023/06/05 02:47:04;;;;;;;4.70;1.45;;;;;;;21.88;39.15;101811.44;5015969;28;20409;-59
2023/06/05 02:49:32;;;;;;;2.35;1.70;;;;;;;21.84;39.26;101815.50;5015736;28;20497;-59
2023/06/05 02:51:58;;;;;;;3.50;1.67;;;;;;;21.81;38.32;101811.25;5015868;28;20120;-59
2023/06/05 02:54:28;;;;;;;3.63;1.42;;;;;;;21.77;38.77;101812.66;5016548;28;20092;-59
2023/06/05 02:56:56;;;;;;;1.90;1.42;;;;;;;21.57;39.06;101786.00;5014701;28;20037;-59
2023/06/05 02:59:24;;;;;;;2.80;1.80;;;;;;;21.71;38.32;101815.25;5015855;28;20038;-60
2023/06/05 03:01:51;;;;;;;4.57;2.05;;;;;;;21.67;38.52;101808.44;5015697;28;20084;-59
2023/06/05 03:04:20;;;;;;;3.70;1.60;;;;;;;21.63;38.78;101807.09;5015364;28;20033;-59
2023/06/05 03:06:48;;;;;;;2.38;1.60;;;;;;;21.61;39.46;101811.91;5015581;28;20125;-59
2023/06/05 03:09:14;;;;;;;5.53;2.03;;;;;;;21.58;39.55;101804.88;5015878;28;20413;-59
2023/06/05 03:11:39;;;;;;;7.68;1.92;;;;;;;21.55;38.75;101805.28;5014940;28;20038;-59
2023/06/05 03:14:05;;;;;;;2.88;1.48;;;;;;;21.53;39.27;101812.75;5015329;28;20069;-59
2023/06/05 03:16:34;;;;;;;1.67;1.38;;;;;;;21.50;39.71;101801.38;5015160;28;20397;-59
2023/06/05 03:19:00;;;;;;;2.55;1.65;;;;;;;21.48;39.95;101804.25;5015426;28;20033;-59
2023/06/05 03:21:25;;;;;;;3.17;1.90;;;;;;;21.45;39.44;101810.91;5015626;28;20052;-59
2023/06/05 03:23:50;;;;;;;3.75;1.90;;;;;;;21.42;39.44;101797.63;5015092;28;20034;-59
2023/06/05 03:26:16;;;;;;;3.65;1.63;;;;;;;21.22;39.15;101788.16;5014610;28;20038;-59
2023/06/05 03:28:42;;;;;;;3.92;1.40;;;;;;;21.38;39.60;101815.34;5014913;28;20552;-59
2023/06/05 03:31:09;;;;;;;6.35;2.00;;;;;;;21.33;39.43;101809.59;5014899;28;20038;-59
2023/06/05 03:33:34;;;;;;;2.80;1.63;;;;;;;21.33;39.64;101806.84;5013983;28;20038;-59
2023/06/05 03:36:00;;;;;;;3.58;1.70;;;;;;;21.30;39.44;101807.22;5014675;28;20402;-59
2023/06/05 03:38:25;;;;;;;5.05;1.75;;;;;;;21.25;39.28;101806.88;5014319;28;20092;-59
2023/06/05 03:40:50;;;;;;;2.75;2.30;;;;;;;21.22;39.88;101809.09;5014655;28;20088;-59
2023/06/05 03:43:16;;;;;;;4.75;2.13;;;;;;;21.21;40.13;101812.88;5014475;28;20046;-59
2023/06/05 03:45:41;;;;;;;3.50;1.63;;;;;;;21.18;39.34;101805.91;5014629;28;20026;-59
2023/06/05 03:48:08;;;;;;;2.92;1.70;;;;;;;21.15;39.77;101808.13;5015134;28;20409;-59
2023/06/05 03:50:37;;;;;;;4.68;1.42;;;;;;;21.12;39.90;101809.31;5014493;28;20448;-59
2023/06/05 03:53:03;;;;;;;3.38;1.88;;;;;;;20.94;39.26;101778.66;5014334;28;20410;-59
2023/06/05 03:55:40;;;;;;;2.85;1.85;;;;;;;21.06;39.90;101804.53;5014061;28;20030;-59
2023/06/05 03:58:08;;;;;;;3.30;1.95;;;;;;;21.06;40.07;101807.25;5014483;28;20109;-59
2023/06/05 04:00:33;;;;;;;4.60;1.67;;;;;;;21.06;40.40;101809.97;5014898;28;20017;-59
2023/06/05 04:02:59;;;;;;;5.00;1.90;;;;;;;21.05;39.66;101801.97;5013027;28;20030;-59
2023/06/05 04:05:24;;;;;;;4.57;1.73;;;;;;;21.05;39.95;101810.97;5014192;28;20045;-59
2023/06/05 04:07:50;;;;;;;7.97;2.80;;;;;;;21.05;40.16;101808.25;5014279;28;20382;-59
2023/06/05 04:10:15;;;;;;;10.30;2.00;;;;;;;20.92;39.95;101792.47;5014161;28;20543;-59
2023/06/05 04:12:41;;;;;;;3.45;1.50;;;;;;;21.04;40.49;101805.72;5014172;28;20593;-59
2023/06/05 04:15:09;;;;;;;3.28;2.03;;;;;;;21.04;40.17;101811.16;5014969;28;20102;-59
2023/06/05 04:17:34;;;;;;;10.18;2.15;;;;;;;21.05;40.07;101818.34;5014037;28;20030;-59
2023/06/05 04:19:59;;;;;;;3.70;1.95;;;;;;;21.06;40.17;101812.69;5014157;28;20523;-59
2023/06/05 04:22:25;;;;;;;3.10;2.05;;;;;;;21.08;39.98;101809.84;5014041;28;20042;-59
2023/06/05 04:24:50;;;;;;;2.88;1.52;;;;;;;21.11;40.34;101813.06;5013917;28;20037;-59
2023/06/05 04:27:17;;;;;;;7.63;2.10;;;;;;;21.14;39.98;101812.72;5014120;28;20036;-59
2023/06/05 04:29:44;;;;;;;8.18;1.98;;;;;;;21.18;40.20;101824.13;5013704;28;20120;-59
2023/06/05 04:32:09;;;;;;;4.65;1.98;;;;;;;21.19;40.57;101818.47;5013634;28;20034;-59
2023/06/05 04:34:34;;;;;;;6.40;2.53;;;;;;;21.22;40.22;101818.13;5013799;28;20044;-59
2023/06/05 04:37:01;;;;;;;4.30;2.45;;;;;;;21.26;40.46;101822.22;5013389;28;20107;-59
2023/06/05 04:39:26;;;;;;;5.47;2.10;;;;;;;21.30;40.20;101823.56;5014295;28;20037;-59
2023/06/05 04:41:52;;;;;;;4.00;1.83;;;;;;;21.35;40.15;101821.19;5013610;28;20038;-59
2023/06/05 04:44:18;;;;;;;6.20;2.90;;;;;;;21.41;40.05;101820.47;5013483;28;20033;-59
2023/06/05 04:46:45;;;;;;;4.53;2.00;;;;;;;21.43;40.02;101818.44;5013481;28;20042;-59
2023/06/05 04:49:11;;;;;;;10.02;2.47;;;;;;;21.50;40.31;101817.72;5013870;28;20095;-59
2023/06/05 04:51:37;;;;;;;4.18;2.17;;;;;;;21.53;40.50;101815.47;5013612;28;20537;-60
2023/06/05 04:54:03;;;;;;;5.22;2.45;;;;;;;21.61;40.08;101822.81;5014711;28;20053;-59
2023/06/05 04:56:28;;;;;;;4.05;2.40;;;;;;;21.67;40.31;101817.47;5013508;28;20053;-59
2023/06/05 04:58:54;;;;;;;5.93;2.28;;;;;;;21.74;39.62;101817.63;5013423;28;20485;-60
2023/06/05 05:01:20;;;;;;;6.65;2.15;;;;;;;21.78;39.68;101822.53;5013219;28;20490;-59
2023/06/05 05:03:46;;;;;;;7.72;2.28;;;;;;;21.86;40.33;101818.94;5013382;28;20041;-59
2023/06/05 05:06:16;;;;;;;5.97;2.75;;;;;;;21.90;39.66;101818.41;5013767;28;20026;-59
2023/06/05 05:08:43;;;;;;;4.93;2.13;;;;;;;21.98;39.95;101828.44;5013559;28;20449;-59
2023/06/05 05:11:08;;;;;;;3.78;2.22;;;;;;;22.07;40.03;101821.06;5013193;28;20037;-59
2023/06/05 05:13:33;;;;;;;6.43;2.30;;;;;;;22.14;39.64;101828.34;5013529;28;20044;-59
2023/06/05 05:15:59;;;;;;;6.35;2.53;;;;;;;22.22;39.68;101830.19;5013105;28;20036;-59
2023/06/05 05:18:25;;;;;;;3.15;2.05;;;;;;;22.28;39.74;101824.81;5013949;28;20034;-59
2023/06/05 05:20:50;;;;;;;5.53;2.38;;;;;;;22.36;39.41;101822.03;5013155;28;20132;-59
2023/06/05 05:23:15;;;;;;;3.78;2.25;;;;;;;22.43;39.18;101823.03;5013030;28;20030;-59
2023/06/05 05:25:41;;;;;;;7.00;2.55;;;;;;;22.51;39.92;101824.84;5013254;28;20046;-59
2023/06/05 05:28:06;;;;;;;3.70;2.05;;;;;;;22.42;38.89;101796.75;5012072;28;20040;-59
2023/06/05 05:30:32;;;;;;;4.60;2.25;;;;;;;22.57;38.95;101818.66;5013359;28;20083;-59
2023/06/05 05:32:58;;;;;;;4.13;2.33;;;;;;;22.68;39.20;101820.13;5011630;28;20045;-61
2023/06/05 05:35:23;;;;;;;6.18;2.80;;;;;;;22.73;38.68;101821.28;5012999;28;20129;-59
2023/06/05 05:37:48;;;;;;;4.60;2.80;;;;;;;22.83;39.63;101823.75;5012619;28;20050;-59
2023/06/05 05:40:14;;;;;;;6.63;2.42;;;;;;;22.97;38.48;101817.47;5012798;28;20045;-59
2023/06/05 05:42:39;;;;;;;4.55;2.80;;;;;;;23.09;38.49;101818.69;5012937;28;20030;-59
2023/06/05 05:45:05;;;;;;;6.07;2.88;;;;;;;23.26;38.27;101825.69;5012665;28;20136;-60
2023/06/05 05:47:31;;;;;;;4.38;2.33;;;;;;;23.37;39.16;101817.03;5012713;28;20037;-58
2023/06/05 05:49:56;;;;;;;6.07;2.70;;;;;;;23.46;38.32;101821.41;5016046;28;20038;-60
2023/06/05 05:52:22;;;;;;;4.75;2.75;;;;;;;23.61;37.83;101819.53;5033116;28;20033;-59
2023/06/05 05:54:48;;;;;;;6.30;2.63;;;;;;;23.68;38.12;101811.38;5032360;28;20477;-59
2023/06/05 05:57:13;;;;;;;3.47;2.33;;;;;;;23.82;38.55;101820.59;5033878;28;20044;-59
2023/06/05 05:59:42;;;;;;;6.18;2.10;;;;;;;23.79;38.26;101799.94;5036541;28;20404;-59
2023/06/05 06:02:09;;;;;;;6.03;2.50;;;;;;;24.02;38.56;101819.81;5018796;28;20096;-59
2023/06/05 06:04:35;;;;;;;3.75;2.40;;;;;;;24.11;38.26;101826.91;5036142;28;20091;-60
2023/06/05 06:07:00;;;;;;;4.40;2.40;;;;;;;24.19;37.28;101824.06;5036245;28;20432;-59
2023/06/05 06:09:26;;;;;;;3.83;2.45;;;;;;;24.27;37.83;101826.66;5036746;28;20064;-59
2023/06/05 06:11:55;;;;;;;10.35;2.80;;;;;;;24.37;37.94;101829.09;5035732;28;20566;-59
2023/06/05 06:14:21;;;;;;;5.47;3.67;;;;;;;24.48;37.90;101823.09;5035977;28;20124;-59
2023/06/05 06:16:47;;;;;;;6.50;2.83;;;;;;;24.59;37.41;101821.72;5035697;28;20034;-59
2023/06/05 06:19:14;;;;;;;6.90;2.70;;;;;;;24.70;37.07;101824.78;5034411;28;20091;-60
2023/06/05 06:21:40;;;;;;;3.50;2.53;;;;;;;24.79;37.57;101826.34;5036004;28;20084;-60
2023/06/05 06:24:05;;;;;;;5.60;2.50;;;;;;;24.88;36.94;101825.16;5037514;28;20068;-59
2023/06/05 06:26:31;;;;;;;3.85;2.60;;;;;;;25.00;36.61;101832.84;5035640;28;20057;-59
2023/06/05 06:28:59;;;;;;;7.57;2.85;;;;;;;25.11;36.53;101832.28;5035734;28;20087;-59
2023/06/05 06:31:24;;;;;;;4.95;2.67;;;;;;;25.20;36.64;101839.34;5039577;28;20448;-59
2023/06/05 06:33:50;;;;;;;5.20;2.30;;;;;;;25.31;36.42;101833.28;5035541;28;20065;-59
2023/06/05 06:36:17;;;;;;;7.03;2.55;;;;;;;25.42;36.33;101838.22;5036160;28;20097;-59
2023/06/05 06:38:42;;;;;;;4.35;2.97;;;;;;;25.52;36.31;101833.22;5035395;28;20080;-60
2023/06/05 06:41:08;;;;;;;5.38;2.50;;;;;;;25.63;36.58;101840.88;5035315;28;20061;-59
2023/06/05 06:43:33;;;;;;;5.05;2.97;;;;;;;25.73;36.31;101826.81;5030805;28;20038;-57
2023/06/05 06:46:00;;;;;;;4.50;2.75;;;;;;;25.86;36.04;101838.69;5015322;28;20038;-59
2023/06/05 06:48:25;;;;;;;5.43;2.30;;;;;;;25.98;35.93;101841.69;5016065;28;20034;-59
2023/06/05 06:50:52;;;;;;;13.07;3.25;;;;;;;26.11;36.18;101839.00;5015413;28;20387;-57
2023/06/05 06:53:18;;;;;;;3.33;2.30;;;;;;;26.22;35.62;101848.56;5015525;28;20045;-57
2023/06/05 06:55:43;;;;;;;8.95;2.75;;;;;;;26.33;35.60;101853.44;5015321;28;20120;-57
2023/06/05 06:58:09;;;;;;;16.52;2.55;;;;;;;26.44;34.95;101850.09;5015408;28;20034;-57
2023/06/05 07:00:34;;;;;;;4.28;2.58;;;;;;;26.55;35.02;101847.59;5015878;28;20474;-57
2023/06/05 07:03:00;;;;;;;6.72;2.80;;;;;;;26.66;35.09;101848.03;5015078;28;20044;-56
2023/06/05 07:05:26;;;;;;;7.97;3.30;;;;;;;26.79;34.71;101859.94;5015076;28;20034;-57
2023/06/05 07:07:51;;;;;;;6.65;2.60;;;;;;;26.91;35.30;101858.22;5015268;28;20034;-57
2023/06/05 07:10:17;;;;;;;8.50;2.70;;;;;;;27.04;35.10;101852.75;5015466;28;20064;-60
2023/06/05 07:12:42;;;;;;;4.45;2.10;;;;;;;27.17;34.25;101852.72;5015594;28;20040;-57
2023/06/05 07:15:08;;;;;;;6.65;2.40;;;;;;;27.27;34.72;101851.44;5015976;28;20026;-57
2023/06/05 07:17:33;;;;;;;4.78;2.17;;;;;;;27.40;34.86;101848.66;5015344;28;20493;-57
2023/06/05 07:19:58;;;;;;;6.90;3.20;;;;;;;27.52;34.46;101841.47;5014309;28;20501;-57
2023/06/05 07:22:25;;;;;;;4.88;2.85;;;;;;;27.62;34.89;101844.63;5015131;28;20091;-56
2023/06/05 07:24:50;;;;;;;6.15;3.03;;;;;;;27.72;33.81;101850.53;5030007;28;20026;-57
2023/06/05 07:27:16;;;;;;;4.97;2.95;;;;;;;27.80;33.94;101847.53;5015393;28;20033;-57
2023/06/05 07:29:42;;;;;;;5.15;2.80;;;;;;;27.91;34.24;101848.75;4997303;28;20034;-57
2023/06/05 07:32:07;;;;;;;6.45;3.30;;;;;;;28.01;34.06;101849.97;5014752;28;20116;-56
2023/06/05 07:34:34;;;;;;;6.45;2.70;;;;;;;28.11;32.97;101850.38;5013568;28;20161;-57
2023/06/05 07:36:59;;;;;;;5.55;2.92;;;;;;;28.24;33.83;101858.59;5013428;28;20401;-57
2023/06/05 07:39:25;;;;;;;6.15;3.13;;;;;;;28.39;32.70;101858.31;5013789;28;20036;-56
2023/06/05 07:41:50;;;;;;;4.40;2.45;;;;;;;28.51;32.59;101850.16;5014831;28;20045;-58
2023/06/05 07:44:17;;;;;;;5.40;2.53;;;;;;;28.66;33.08;101847.97;5014539;28;20041;-57
2023/06/05 07:46:44;;;;;;;4.35;3.08;;;;;;;28.80;33.57;101844.88;5014429;28;20390;-57
2023/06/05 07:49:09;;;;;;;7.20;3.30;;;;;;;28.92;32.66;101846.91;5014473;28;20045;-57
2023/06/05 07:51:38;;;;;;;7.68;3.00;;;;;;;29.04;32.79;101848.69;5014848;28;20033;-57
2023/06/05 07:54:09;;;;;;;4.45;2.53;;;;;;;29.14;32.80;101846.28;5013720;28;20041;-57
2023/06/05 07:56:34;;;;;;;8.52;3.28;;;;;;;29.28;32.52;101838.75;5014187;28;20038;-57
2023/06/05 07:59:04;;;;;;;3.30;2.72;;;;;;;29.41;32.06;101844.97;5014441;28;20064;-57
2023/06/05 08:01:30;;;;;;;5.30;2.97;;;;;;;29.53;32.70;101838.69;5014736;28;20038;-57
2023/06/05 08:03:56;;;;;;;6.78;3.10;;;;;;;29.60;32.75;101836.69;5014534;28;20473;-57
2023/06/05 08:06:24;;;;;;;3.63;2.97;;;;;;;29.72;32.49;101843.16;5013376;28;20045;-57
2023/06/05 08:08:50;;;;;;;8.77;2.88;;;;;;;29.85;31.92;101843.00;5014365;28;20041;-58
2023/06/05 08:11:15;;;;;;;10.30;2.92;;;;;;;29.93;31.71;101840.78;5014082;28;20220;-57
2023/06/05 08:13:41;;;;;;;8.32;3.17;;;;;;;30.06;32.00;101839.78;5012878;28;20556;-57
2023/06/05 08:16:06;;;;;;;7.38;3.22;;;;;;;30.19;31.79;101839.59;5012944;28;20037;-57
2023/06/05 08:18:32;;;;;;;5.25;3.40;;;;;;;30.31;31.58;101837.72;5013496;28;20525;-57
2023/06/05 08:20:58;;;;;;;4.28;3.00;;;;;;;30.31;31.34;101812.84;5013364;28;20044;-56
2023/06/05 08:23:23;;;;;;;6.15;3.10;;;;;;;30.51;31.09;101826.41;5012735;28;20049;-57
2023/06/05 08:25:49;;;;;;;3.95;3.40;;;;;;;30.61;31.13;101825.81;5014063;28;20448;-57
2023/06/05 08:28:16;;;;;;;8.07;3.63;;;;;;;30.67;31.03;101824.88;5013926;28;20029;-57
2023/06/05 08:30:41;;;;;;;6.88;3.40;;;;;;;30.77;30.96;101819.56;5013552;28;20481;-57
2023/06/05 08:33:07;;;;;;;7.57;3.10;;;;;;;30.86;30.78;101824.53;5014000;28;20025;-57
2023/06/05 08:35:32;;;;;;;7.22;2.83;;;;;;;30.93;31.13;101816.97;5013649;28;20088;-57
2023/06/05 08:37:58;;;;;;;8.57;4.00;;;;;;;31.08;30.46;101819.28;5012316;28;20050;-57
2023/06/05 08:40:28;;;;;;;4.70;3.00;;;;;;;31.16;30.58;101821.69;5013639;28;20030;-57
2023/06/05 08:42:53;;;;;;;12.98;3.80;;;;;;;31.29;30.22;101821.47;5012760;28;20058;-57
2023/06/05 08:45:18;;;;;;;7.63;3.85;;;;;;;31.34;30.13;101817.94;5013862;28;20066;-57
2023/06/05 08:47:44;;;;;;;9.68;3.85;;;;;;;31.49;30.23;101816.38;5013451;28;20037;-58
2023/06/05 08:50:10;;;;;;;6.47;3.25;;;;;;;31.62;30.18;101815.28;4995936;28;20520;-57
2023/06/05 08:52:38;;;;;;;3.95;2.92;;;;;;;31.77;29.73;101812.00;5013421;28;20073;-57
2023/06/05 08:55:05;;;;;;;9.43;4.05;;;;;;;31.86;29.80;101813.28;5018919;28;20041;-58
2023/06/05 08:57:41;;;;;;;5.32;2.90;;;;;;;31.99;30.12;101813.88;5045577;28;20124;-57
2023/06/05 09:00:10;;;;;;;5.35;3.28;;;;;;;32.08;29.34;101817.09;5016154;28;20041;-58
2023/06/05 09:02:47;;;;;;;8.02;3.55;;;;;;;32.14;29.43;101805.03;5033011;28;20037;-57
2023/06/05 09:05:14;;;;;;;12.13;3.13;;;;;;;32.20;29.50;101804.88;5031899;28;20034;-58
2023/06/05 09:07:40;;;;;;;6.63;3.00;;;;;;;32.28;29.50;101809.19;5031944;28;20064;-57
2023/06/05 09:10:06;;;;;;;8.55;3.65;;;;;;;32.36;28.91;101802.41;5032797;28;20029;-57
2023/06/05 09:12:32;;;;;;;6.68;3.25;;;;;;;32.47;29.29;101805.09;5031880;28;20033;-59
2023/06/05 09:14:58;;;;;;;6.60;3.25;;;;;;;32.56;27.99;101802.78;5033022;28;20539;-58
2023/06/05 09:17:23;;;;;;;8.95;3.30;;;;;;;32.56;28.66;101800.84;5032870;28;20072;-58
2023/06/05 09:19:50;;;;;;;9.30;3.10;;;;;;;32.69;29.32;101797.72;5031571;28;20045;-57
2023/06/05 09:22:16;;;;;;;3.65;3.20;;;;;;;32.76;28.61;101803.97;5033019;28;20044;-58
2023/06/05 09:24:42;;;;;;;8.52;3.50;;;;;;;32.90;29.05;101796.16;5033335;28;20029;-57
2023/06/05 09:27:10;;;;;;;9.25;3.58;;;;;;;33.04;28.02;101791.06;5033833;28;20443;-58
2023/06/05 09:29:40;;;;;;;7.50;3.55;;;;;;;33.16;27.71;101792.72;5033172;28;20029;-58
2023/06/05 09:32:07;;;;;;;6.47;3.92;;;;;;;33.23;28.93;101782.22;5032181;28;20033;-58
2023/06/05 09:34:38;;;;;;;9.52;3.25;;;;;;;33.33;28.89;101795.44;5037048;28;20038;-58
2023/06/05 09:37:13;;;;;;;4.63;3.35;;;;;;;33.40;28.38;101788.59;5052065;28;20421;-58
2023/06/05 09:39:40;;;;;;;7.30;3.13;;;;;;;33.49;28.29;101788.16;5036827;28;20116;-58
2023/06/05 09:42:06;;;;;;;6.55;3.65;;;;;;;33.55;27.22;101790.75;5037622;28;20439;-58
2023/06/05 09:44:33;;;;;;;9.02;3.28;;;;;;;33.62;27.83;101788.63;5036668;28;20107;-58
2023/06/05 09:47:02;;;;;;;4.25;3.17;;;;;;;33.69;27.44;101791.22;5035398;28;20033;-58
2023/06/05 09:49:49;;;;;;;4.95;3.45;;;;;;;33.81;27.60;101789.16;5036790;28;20069;-59
2023/06/05 09:52:14;;;;;;;9.80;3.53;;;;;;;33.72;27.57;101747.06;5036400;28;20465;-59
2023/06/05 09:54:44;;;;;;;6.10;3.25;;;;;;;34.08;27.60;101780.88;5036350;28;20112;-58
2023/06/05 09:57:12;;;;;;;9.45;3.95;;;;;;;34.20;26.74;101787.13;5037004;28;20026;-58
2023/06/05 09:59:41;;;;;;;19.48;3.58;;;;;;;34.29;26.55;101789.16;5035303;28;20036;-58
2023/06/05 10:02:08;;;;;;;5.30;3.22;;;;;;;34.39;27.09;101783.69;5036449;28;20041;-58
2023/06/05 10:04:58;;;;;;;7.07;3.80;;;;;;;34.49;27.13;101780.16;5035006;28;20037;-58
2023/06/05 10:07:24;;;;;;;4.95;2.72;;;;;;;34.59;26.23;101780.28;5029891;28;20041;-59
2023/06/05 10:09:50;;;;;;;8.00;3.97;;;;;;;34.69;27.20;101780.38;5018202;28;20591;-58
2023/06/05 10:12:16;;;;;;;5.05;3.22;;;;;;;34.75;27.01;101775.69;5036300;28;20108;-58
2023/06/05 10:14:43;;;;;;;3.60;2.72;;;;;;;34.80;26.63;101770.13;5034858;28;20033;-58
2023/06/05 10:17:10;;;;;;;6.63;3.60;;;;;;;34.89;26.98;101774.97;5034787;28;20033;-59
2023/06/05 10:19:35;;;;;;;6.22;2.88;;;;;;;34.99;26.38;101777.81;5035876;28;20436;-59
2023/06/05 10:22:01;;;;;;;5.40;3.83;;;;;;;35.12;26.63;101772.91;5018240;28;20040;-59
2023/06/05 10:24:30;;;;;;;5.07;3.05;;;;;;;35.28;25.82;101771.88;5036427;28;20056;-59
2023/06/05 10:27:11;;;;;;;7.13;3.47;;;;;;;35.38;26.17;101766.34;5035627;28;20091;-59
2023/06/05 10:29:48;;;;;;;6.57;2.97;;;;;;;35.52;26.22;101770.31;5035628;28;20563;-59
2023/06/05 10:32:19;;;;;;;6.57;2.33;;;;;;;35.64;25.84;101770.97;5035504;28;20091;-59
2023/06/05 10:35:04;;;;;;;5.18;3.03;;;;;;;35.77;25.52;101770.44;5034365;28;20409;-58
2023/06/05 10:37:36;;;;;;;5.28;3.00;;;;;;;35.83;25.63;101763.78;5035577;28;20188;-59
2023/06/05 10:40:04;;;;;;;8.07;2.80;;;;;;;35.84;25.73;101745.09;5035955;28;20405;-59
2023/06/05 10:42:30;;;;;;;6.93;3.38;;;;;;;36.08;24.94;101761.09;5035592;28;20025;-58
2023/06/05 10:44:56;;;;;;;7.55;2.30;;;;;;;36.20;25.10;101755.25;5035048;28;20120;-59
2023/06/05 10:47:33;;;;;;;3.60;2.45;;;;;;;36.29;24.61;101756.38;5035610;28;20128;-59
2023/06/05 10:50:19;;;;;;;6.57;3.00;;;;;;;36.40;24.72;101758.06;5035880;28;20124;-59
2023/06/05 10:52:45;;;;;;;5.30;2.83;;;;;;;36.52;24.49;101760.59;5035615;28;20044;-59
2023/06/05 10:55:12;;;;;;;4.75;2.88;;;;;;;36.63;24.28;101751.13;5035439;28;20116;-59
2023/06/05 10:58:02;;;;;;;6.25;2.20;;;;;;;36.79;24.63;101744.38;5035658;28;20053;-60
2023/06/05 11:00:28;;;;;;;4.95;2.50;;;;;;;36.86;24.13;101728.16;5034444;28;20083;-59
2023/06/05 11:02:54;;;;;;;4.82;2.22;;;;;;;37.05;24.30;101720.06;5035470;28;20120;-60
2023/06/05 11:05:20;;;;;;;5.85;2.72;;;;;;;37.25;23.82;101743.19;5017291;28;20037;-59
2023/06/05 11:07:45;;;;;;;8.52;2.92;;;;;;;37.32;23.67;101738.13;5034169;28;20504;-60
2023/06/05 11:10:21;;;;;;;4.20;2.72;;;;;;;37.43;23.22;101738.13;5035726;28;20068;-59
2023/06/05 11:12:46;;;;;;;4.00;2.33;;;;;;;37.48;23.19;101718.50;5035361;28;20037;-60
2023/06/05 11:15:12;;;;;;;9.40;2.80;;;;;;;37.71;23.10;101735.47;5034141;28;20029;-59
2023/06/05 11:17:45;;;;;;;3.83;1.95;;;;;;;37.87;23.26;101733.41;5034882;28;20103;-60
2023/06/05 11:20:28;;;;;;;6.45;2.63;;;;;;;38.02;22.52;101729.72;5034921;28;20041;-60
2023/06/05 11:22:54;;;;;;;5.93;2.13;;;;;;;38.14;22.26;101733.81;5034726;28;20041;-59